Time;durP1;ratioP1;P1;durP2;ratioP2;P2;SDS_P1;SDS_P2;PMS_P1;PMS_P2;Temp;Humidity;BMP_temperature;BMP_pressure;BME280_temperature;BME280_humidity;BME280_pressure;Samples;Min_cycle;Max_cycle;Signal;HPM_P1;HPM_P2
2022/04/08 00:02:13;;;;;;;11.25;7.88;;;;;;;;;;4951837;28;20462;-70
2022/04/08 00:04:50;;;;;;;11.75;8.35;;;;;;;;;;4950033;28;20046;-70
2022/04/08 00:07:16;;;;;;;8.63;7.80;;;;;;;;;;4933945;29;20035;-70
2022/04/08 00:09:42;;;;;;;12.50;8.45;;;;;;;;;;4934631;29;20061;-69
2022/04/08 00:12:09;;;;;;;11.30;8.55;;;;;;;;;;4951584;29;20637;-70
2022/04/08 00:14:34;;;;;;;8.60;7.78;;;;;;;;;;4950041;28;20043;-70
2022/04/08 00:17:01;;;;;;;10.20;8.10;;;;;;;;;;4953240;28;20046;-69
2022/04/08 00:19:27;;;;;;;9.35;8.48;;;;;;;;;;4950989;28;20043;-70
2022/04/08 00:21:53;;;;;;;8.98;8.18;;;;;;;;;;4950472;29;20446;-69
2022/04/08 00:24:19;;;;;;;8.95;8.15;;;;;;;;;;4948877;29;20498;-69
2022/04/08 00:26:46;;;;;;;11.43;8.20;;;;;;;;;;4953441;28;20141;-69
2022/04/08 00:29:13;;;;;;;12.35;8.38;;;;;;;;;;4933254;29;20070;-69
2022/04/08 00:31:39;;;;;;;12.82;8.50;;;;;;;;;;4929028;28;20035;-69
2022/04/08 00:34:04;;;;;;;9.77;7.95;;;;;;;;;;4947620;28;20074;-69
2022/04/08 00:36:30;;;;;;;8.90;7.97;;;;;;;;;;4951171;28;20035;-69
2022/04/08 00:38:56;;;;;;;12.40;8.63;;;;;;;;;;4946334;29;20039;-70
2022/04/08 00:41:21;;;;;;;8.82;8.02;;;;;;;;;;4952990;28;20046;-69
2022/04/08 00:43:47;;;;;;;11.88;8.60;;;;;;;;;;4956066;28;20125;-69
2022/04/08 00:46:12;;;;;;;11.18;8.30;;;;;;;;;;4949810;28;20403;-69
2022/04/08 00:48:39;;;;;;;10.25;8.38;;;;;;;;;;4951579;28;20194;-69
2022/04/08 00:51:06;;;;;;;11.13;8.77;;;;;;;;;;4951027;29;20035;-69
2022/04/08 00:53:35;;;;;;;10.98;8.65;;;;;;;;;;4950764;28;20395;-69
2022/04/08 00:56:02;;;;;;;9.65;8.27;;;;;;;;;;4934019;28;20082;-69
2022/04/08 00:58:28;;;;;;;9.80;8.60;;;;;;;;;;4953782;28;20484;-69
2022/04/08 01:00:54;;;;;;;13.10;8.93;;;;;;;;;;4926854;29;20593;-69
2022/04/08 01:03:19;;;;;;;9.82;8.63;;;;;;;;;;4932471;29;20325;-69
2022/04/08 01:05:45;;;;;;;10.00;8.50;;;;;;;;;;4934147;28;20233;-69
2022/04/08 01:08:12;;;;;;;11.98;9.07;;;;;;;;;;4953269;28;20039;-69
2022/04/08 01:22:49;;;;;;;10.60;8.40;;;;;;;;;;4949836;28;20446;-69
2022/04/08 01:25:14;;;;;;;10.80;8.65;;;;;;;;;;4956308;28;20035;-69
2022/04/08 01:27:40;;;;;;;9.40;8.40;;;;;;;;;;4957758;28;20098;-68
2022/04/08 01:30:15;;;;;;;12.60;8.90;;;;;;;;;;4950283;29;20038;-68
2022/04/08 01:32:41;;;;;;;9.27;8.57;;;;;;;;;;4945765;28;20034;-69
2022/04/08 01:35:07;;;;;;;9.27;8.32;;;;;;;;;;4952623;28;20109;-68
2022/04/08 01:37:33;;;;;;;10.18;8.50;;;;;;;;;;4949926;29;20039;-69
2022/04/08 01:39:58;;;;;;;12.50;8.65;;;;;;;;;;4933003;29;20050;-69
2022/04/08 01:42:24;;;;;;;9.55;8.70;;;;;;;;;;4944202;29;20043;-69
2022/04/08 01:44:52;;;;;;;9.93;8.32;;;;;;;;;;4930947;29;20407;-69
2022/04/08 02:11:47;;;;;;;10.18;8.88;;;;;;;;;;4945632;29;20042;-68
2022/04/08 02:14:13;;;;;;;10.65;8.30;;;;;;;;;;4949984;28;20039;-68
2022/04/08 02:16:39;;;;;;;9.52;8.63;;;;;;;;;;4952048;28;20074;-67
2022/04/08 02:19:04;;;;;;;9.40;8.52;;;;;;;;;;4949213;29;20118;-68
2022/04/08 02:21:31;;;;;;;11.13;8.98;;;;;;;;;;4953492;28;20035;-69
2022/04/08 02:23:57;;;;;;;9.57;8.70;;;;;;;;;;4957211;28;20147;-69
2022/04/08 02:26:22;;;;;;;10.65;9.15;;;;;;;;;;4944870;28;20365;-69
2022/04/08 02:28:48;;;;;;;9.23;8.48;;;;;;;;;;4948798;28;20066;-69
2022/04/08 02:31:13;;;;;;;10.23;9.20;;;;;;;;;;4957153;28;20039;-70
2022/04/08 02:33:39;;;;;;;9.05;8.32;;;;;;;;;;4951217;28;20106;-70
2022/04/08 02:36:05;;;;;;;10.82;8.75;;;;;;;;;;4953834;28;20039;-70
2022/04/08 02:38:32;;;;;;;9.55;8.65;;;;;;;;;;4937960;29;20138;-70
2022/04/08 02:40:57;;;;;;;10.02;9.00;;;;;;;;;;4951845;29;20039;-69
2022/04/08 02:43:23;;;;;;;9.60;8.65;;;;;;;;;;4932643;28;20396;-69
2022/04/08 02:45:49;;;;;;;9.90;9.00;;;;;;;;;;4955095;28;20499;-70
2022/04/08 02:48:15;;;;;;;9.38;8.77;;;;;;;;;;4952776;29;20130;-70
2022/04/08 02:50:41;;;;;;;10.13;9.25;;;;;;;;;;4951376;29;20126;-70
2022/04/08 02:53:06;;;;;;;9.52;8.65;;;;;;;;;;4954623;28;20038;-69
2022/04/08 02:55:32;;;;;;;9.70;8.82;;;;;;;;;;4934673;29;20039;-69
2022/04/08 02:57:58;;;;;;;9.75;8.90;;;;;;;;;;4952390;29;20070;-69
2022/04/08 03:00:23;;;;;;;9.82;8.90;;;;;;;;;;4951736;28;20049;-69
2022/04/08 03:02:49;;;;;;;9.82;8.82;;;;;;;;;;4953131;28;20126;-69
2022/04/08 03:05:15;;;;;;;10.60;8.98;;;;;;;;;;4951732;28;20043;-69
2022/04/08 03:07:42;;;;;;;9.55;8.80;;;;;;;;;;4951017;29;20136;-68
2022/04/08 03:10:09;;;;;;;10.27;9.38;;;;;;;;;;4958226;28;20039;-69
2022/04/08 03:12:35;;;;;;;10.30;9.30;;;;;;;;;;4955115;28;20074;-69
2022/04/08 03:15:01;;;;;;;9.50;8.68;;;;;;;;;;4951991;28;20070;-69
2022/04/08 03:17:30;;;;;;;9.90;9.10;;;;;;;;;;4934234;28;20043;-69
2022/04/08 03:19:57;;;;;;;10.68;9.05;;;;;;;;;;4957569;28;20093;-70
2022/04/08 03:22:23;;;;;;;12.75;9.48;;;;;;;;;;4952230;28;20532;-69
2022/04/08 03:24:50;;;;;;;10.52;9.55;;;;;;;;;;4929001;29;20393;-69
2022/04/08 03:27:16;;;;;;;10.18;9.18;;;;;;;;;;4957167;28;20081;-69
2022/04/08 03:29:42;;;;;;;10.30;9.35;;;;;;;;;;4955866;28;20043;-68
2022/04/08 03:32:08;;;;;;;10.23;9.20;;;;;;;;;;4952276;28;20395;-68
2022/04/08 03:34:34;;;;;;;9.55;8.75;;;;;;;;;;4956118;28;20035;-69
2022/04/08 03:37:00;;;;;;;9.88;8.98;;;;;;;;;;4941361;28;20049;-69
2022/04/08 03:39:26;;;;;;;10.13;9.05;;;;;;;;;;4951175;28;20031;-69
2022/04/08 03:41:51;;;;;;;10.48;9.27;;;;;;;;;;4934335;29;20058;-68
2022/04/08 03:44:17;;;;;;;11.52;8.52;;;;;;;;;;4951578;28;20035;-69
2022/04/08 03:46:44;;;;;;;10.20;8.93;;;;;;;;;;4954526;28;20133;-69
2022/04/08 03:49:14;;;;;;;11.13;9.75;;;;;;;;;;4954008;28;20050;-68
2022/04/08 03:51:46;;;;;;;10.00;9.00;;;;;;;;;;4951616;29;20403;-69
2022/04/08 03:54:13;;;;;;;11.13;9.30;;;;;;;;;;4950836;29;20054;-69
2022/04/08 03:56:42;;;;;;;16.30;10.07;;;;;;;;;;4944235;28;20081;-69
2022/04/08 03:59:08;;;;;;;12.05;9.60;;;;;;;;;;4951675;29;20503;-69
2022/04/08 04:01:34;;;;;;;10.32;9.32;;;;;;;;;;4952775;28;20059;-69
2022/04/08 04:04:00;;;;;;;10.10;9.10;;;;;;;;;;4949320;28;20035;-69
2022/04/08 04:06:26;;;;;;;10.00;9.27;;;;;;;;;;4948784;28;20050;-69
2022/04/08 04:08:51;;;;;;;10.77;9.77;;;;;;;;;;4953041;28;20379;-69
2022/04/08 04:11:17;;;;;;;11.65;9.35;;;;;;;;;;4952031;29;20046;-69
2022/04/08 04:13:43;;;;;;;10.27;9.20;;;;;;;;;;4953160;28;20046;-69
2022/04/08 04:16:09;;;;;;;11.43;9.00;;;;;;;;;;4952662;28;20034;-68
2022/04/08 04:18:35;;;;;;;10.73;9.68;;;;;;;;;;4951561;29;20062;-68
2022/04/08 04:21:00;;;;;;;12.40;9.20;;;;;;;;;;4951465;28;20061;-69
2022/04/08 04:23:26;;;;;;;10.48;9.32;;;;;;;;;;4951867;28;20075;-69
2022/04/08 04:25:51;;;;;;;10.02;9.15;;;;;;;;;;4952897;28;20475;-69
2022/04/08 04:28:17;;;;;;;10.20;9.05;;;;;;;;;;4950830;28;20031;-69
2022/04/08 04:30:43;;;;;;;10.00;9.10;;;;;;;;;;4954853;28;20043;-69
2022/04/08 04:33:08;;;;;;;10.02;9.18;;;;;;;;;;4950299;28;20031;-69
2022/04/08 04:35:35;;;;;;;9.77;8.95;;;;;;;;;;4946601;28;20046;-69
2022/04/08 04:38:00;;;;;;;10.55;9.60;;;;;;;;;;4951826;28;20043;-69
2022/04/08 04:40:26;;;;;;;10.57;9.50;;;;;;;;;;4951781;28;20027;-69
2022/04/08 04:42:52;;;;;;;10.90;9.80;;;;;;;;;;4949132;29;20035;-68
2022/04/08 04:45:18;;;;;;;12.30;9.63;;;;;;;;;;4957726;28;20332;-68
2022/04/08 04:47:44;;;;;;;12.32;9.73;;;;;;;;;;4937696;29;20039;-68
2022/04/08 04:50:09;;;;;;;10.00;9.35;;;;;;;;;;4950478;29;20035;-70
2022/04/08 04:52:35;;;;;;;10.90;9.82;;;;;;;;;;4950679;28;21904;-69
2022/04/08 04:55:02;;;;;;;10.27;9.10;;;;;;;;;;4955570;28;20045;-69
2022/04/08 04:57:28;;;;;;;10.60;9.60;;;;;;;;;;4948995;29;20031;-68
2022/04/08 04:59:54;;;;;;;10.57;9.45;;;;;;;;;;4949752;29;20046;-69
2022/04/08 05:02:20;;;;;;;10.20;9.45;;;;;;;;;;4948462;28;20035;-69
2022/04/08 05:04:45;;;;;;;13.20;9.95;;;;;;;;;;4955311;28;20031;-69
2022/04/08 05:07:11;;;;;;;10.20;9.30;;;;;;;;;;4929194;29;20036;-69
2022/04/08 05:09:40;;;;;;;11.68;9.80;;;;;;;;;;4958201;28;20032;-69
2022/04/08 05:12:07;;;;;;;;;;;;;;;;;;4950573;29;20082;-69
2022/04/08 05:14:33;;;;;;;13.27;9.35;;;;;;;;;;4932877;29;19920;-69
2022/04/08 05:16:58;;;;;;;10.27;9.38;;;;;;;;;;4948191;28;20268;-69
2022/04/08 05:19:24;;;;;;;11.57;9.98;;;;;;;;;;4941052;29;20483;-70
2022/04/08 05:21:52;;;;;;;11.43;10.18;;;;;;;;;;4950552;28;20046;-69
2022/04/08 05:24:19;;;;;;;12.80;9.77;;;;;;;;;;4932057;29;20399;-69
2022/04/08 05:26:44;;;;;;;10.35;9.52;;;;;;;;;;4955024;28;20034;-69
2022/04/08 05:29:10;;;;;;;12.98;10.13;;;;;;;;;;4952598;28;20541;-69
2022/04/08 05:31:36;;;;;;;13.50;9.70;;;;;;;;;;4927292;28;20467;-69
2022/04/08 05:34:02;;;;;;;11.25;9.88;;;;;;;;;;4947037;28;20039;-69
2022/04/08 05:36:27;;;;;;;12.23;9.77;;;;;;;;;;4955572;28;20499;-69
2022/04/08 05:38:53;;;;;;;11.18;10.02;;;;;;;;;;4931795;29;20274;-69
2022/04/08 05:41:19;;;;;;;10.85;9.85;;;;;;;;;;4930304;29;20074;-69
2022/04/08 05:43:45;;;;;;;12.80;10.00;;;;;;;;;;4956502;28;20380;-69
2022/04/08 05:46:11;;;;;;;11.65;10.27;;;;;;;;;;4949130;29;20085;-68
2022/04/08 05:48:37;;;;;;;11.68;10.45;;;;;;;;;;4949546;29;20031;-68
2022/04/08 05:51:02;;;;;;;11.10;9.82;;;;;;;;;;4930211;28;20105;-68
2022/04/08 05:53:28;;;;;;;10.55;9.82;;;;;;;;;;4938667;28;20165;-69
2022/04/08 05:56:02;;;;;;;11.23;10.10;;;;;;;;;;4948168;28;20506;-69
2022/04/08 05:58:28;;;;;;;12.55;10.00;;;;;;;;;;4946434;28;20039;-69
2022/04/08 06:00:53;;;;;;;11.77;9.93;;;;;;;;;;4947058;28;20035;-69
2022/04/08 06:03:19;;;;;;;11.13;10.20;;;;;;;;;;4929625;28;20403;-68
2022/04/08 06:05:45;;;;;;;10.65;9.63;;;;;;;;;;4948988;28;20038;-67
2022/04/08 06:08:10;;;;;;;11.77;10.43;;;;;;;;;;4952533;28;20038;-68
2022/04/08 06:10:36;;;;;;;11.00;9.98;;;;;;;;;;4952386;28;20027;-69
2022/04/08 06:13:02;;;;;;;11.23;10.02;;;;;;;;;;4949299;28;20043;-68
2022/04/08 06:15:28;;;;;;;11.77;10.45;;;;;;;;;;4948325;28;20031;-68
2022/04/08 06:17:55;;;;;;;10.75;9.90;;;;;;;;;;4948427;28;20047;-69
2022/04/08 06:20:22;;;;;;;10.88;9.82;;;;;;;;;;4928885;29;20515;-69
2022/04/08 06:22:49;;;;;;;11.45;9.63;;;;;;;;;;4948788;28;20045;-69
2022/04/08 06:25:19;;;;;;;10.98;9.88;;;;;;;;;;4949344;28;20499;-69
2022/04/08 06:27:56;;;;;;;13.65;9.52;;;;;;;;;;4948834;29;20487;-69
2022/04/08 06:30:21;;;;;;;10.63;8.65;;;;;;;;;;4925781;29;20071;-69
2022/04/08 06:32:47;;;;;;;9.63;8.63;;;;;;;;;;4947893;28;20278;-69
2022/04/08 06:35:13;;;;;;;9.68;8.77;;;;;;;;;;4949776;28;20495;-69
2022/04/08 06:37:38;;;;;;;9.43;8.57;;;;;;;;;;4949244;29;20071;-68
2022/04/08 06:40:10;;;;;;;10.07;8.98;;;;;;;;;;4948295;28;20634;-68
2022/04/08 06:42:38;;;;;;;9.82;8.90;;;;;;;;;;4931352;29;20068;-68
2022/04/08 06:45:07;;;;;;;9.60;8.70;;;;;;;;;;4947316;28;20050;-68
2022/04/08 06:47:32;;;;;;;9.15;8.40;;;;;;;;;;4943792;28;20555;-68
2022/04/08 06:49:58;;;;;;;9.40;8.48;;;;;;;;;;4935584;28;20129;-68
2022/04/08 06:52:24;;;;;;;9.18;8.43;;;;;;;;;;4928683;29;20115;-69
2022/04/08 06:54:49;;;;;;;9.45;8.57;;;;;;;;;;4921177;28;20042;-68
2022/04/08 06:57:15;;;;;;;9.13;8.27;;;;;;;;;;4949332;28;20047;-68
2022/04/08 06:59:41;;;;;;;11.75;9.13;;;;;;;;;;4947605;29;20039;-68
2022/04/08 07:02:10;;;;;;;10.00;9.00;;;;;;;;;;4945993;28;20039;-68
2022/04/08 07:04:36;;;;;;;11.20;9.20;;;;;;;;;;4940819;28;20491;-68
2022/04/08 07:07:06;;;;;;;8.75;8.10;;;;;;;;;;4953805;28;20039;-68
2022/04/08 07:09:32;;;;;;;9.07;8.38;;;;;;;;;;4952951;28;20126;-67
2022/04/08 07:11:58;;;;;;;8.70;8.00;;;;;;;;;;4951721;28;20043;-70
2022/04/08 07:14:24;;;;;;;9.73;7.78;;;;;;;;;;4949949;28;20043;-70
2022/04/08 07:16:49;;;;;;;8.57;7.97;;;;;;;;;;4950876;28;20035;-69
2022/04/08 07:19:15;;;;;;;8.65;7.85;;;;;;;;;;4934714;29;20090;-70
2022/04/08 07:21:41;;;;;;;9.35;8.23;;;;;;;;;;4950399;28;20046;-70
2022/04/08 07:24:07;;;;;;;8.90;8.15;;;;;;;;;;4939257;28;20468;-69
2022/04/08 07:26:32;;;;;;;9.00;8.20;;;;;;;;;;4951641;28;20395;-69
2022/04/08 07:28:58;;;;;;;11.13;10.23;;;;;;;;;;4952222;28;20061;-69
2022/04/08 07:31:23;;;;;;;12.07;10.88;;;;;;;;;;4949849;28;20293;-69
2022/04/08 07:33:49;;;;;;;11.70;10.70;;;;;;;;;;4949462;28;20629;-69
2022/04/08 07:36:15;;;;;;;11.15;10.13;;;;;;;;;;4950699;29;20042;-69
2022/04/08 07:38:41;;;;;;;11.50;10.60;;;;;;;;;;4934122;29;20039;-68
2022/04/08 07:41:06;;;;;;;11.40;10.70;;;;;;;;;;4951249;28;20094;-69
2022/04/08 07:43:32;;;;;;;11.27;10.57;;;;;;;;;;4953799;28;20126;-68
2022/04/08 07:45:57;;;;;;;12.52;11.73;;;;;;;;;;4950645;28;20031;-69
2022/04/08 07:48:23;;;;;;;12.38;11.48;;;;;;;;;;4931554;29;20039;-69
2022/04/08 07:50:49;;;;;;;13.10;12.10;;;;;;;;;;4952069;28;20034;-69
2022/04/08 07:53:15;;;;;;;12.98;11.90;;;;;;;;;;4946079;28;20023;-69
2022/04/08 07:55:41;;;;;;;12.95;11.95;;;;;;;;;;4953010;28;20043;-69
2022/04/08 07:58:07;;;;;;;12.10;11.30;;;;;;;;;;4951072;29;20082;-69
2022/04/08 08:00:33;;;;;;;11.90;11.10;;;;;;;;;;4950436;28;20320;-69
2022/04/08 08:02:59;;;;;;;12.05;11.10;;;;;;;;;;4950977;28;20875;-70
2022/04/08 08:05:26;;;;;;;12.80;11.70;;;;;;;;;;4949540;28;20364;-69
2022/04/08 08:07:57;;;;;;;12.50;11.43;;;;;;;;;;4933018;29;20035;-70
2022/04/08 08:10:24;;;;;;;12.52;11.38;;;;;;;;;;4951372;28;20035;-69
2022/04/08 08:12:51;;;;;;;12.73;11.68;;;;;;;;;;4934561;29;20131;-70
2022/04/08 08:15:20;;;;;;;13.35;12.38;;;;;;;;;;4947314;28;20035;-69
2022/04/08 08:17:47;;;;;;;12.32;11.60;;;;;;;;;;4946050;28;20089;-68
2022/04/08 08:20:15;;;;;;;12.70;11.90;;;;;;;;;;4952645;28;20039;-69
2022/04/08 08:22:41;;;;;;;12.20;11.30;;;;;;;;;;4948763;28;20330;-69
2022/04/08 08:25:07;;;;;;;12.18;11.27;;;;;;;;;;4950011;28;20066;-69
2022/04/08 08:28:02;;;;;;;12.40;11.50;;;;;;;;;;4946673;28;20039;-69
2022/04/08 08:30:30;;;;;;;12.48;11.68;;;;;;;;;;4873374;29;20767;-69
2022/04/08 08:32:56;;;;;;;12.60;11.77;;;;;;;;;;4874164;29;20055;-69
2022/04/08 08:35:25;;;;;;;13.00;12.00;;;;;;;;;;4857456;29;20144;-69
2022/04/08 08:37:51;;;;;;;13.23;12.23;;;;;;;;;;4879404;29;20040;-70
2022/04/08 08:40:18;;;;;;;12.57;11.40;;;;;;;;;;4873763;29;20093;-70
2022/04/08 08:42:44;;;;;;;12.20;11.18;;;;;;;;;;4872502;29;20060;-70
2022/04/08 08:45:12;;;;;;;12.00;11.10;;;;;;;;;;4875139;29;20048;-69
2022/04/08 08:47:38;;;;;;;12.43;11.43;;;;;;;;;;4879776;29;20051;-70
2022/04/08 08:50:06;;;;;;;12.73;11.82;;;;;;;;;;4872389;29;20052;-71
2022/04/08 08:52:33;;;;;;;13.73;12.52;;;;;;;;;;4872403;29;20111;-69
2022/04/08 08:55:02;;;;;;;12.43;11.50;;;;;;;;;;4881876;29;20079;-70
2022/04/08 08:57:27;;;;;;;11.98;11.10;;;;;;;;;;4875462;29;20041;-70
2022/04/08 09:00:06;;;;;;;12.82;11.85;;;;;;;;;;4872976;29;20189;-70
2022/04/08 09:02:32;;;;;;;11.87;11.07;;;;;;;;;;4866091;29;20044;-70
2022/04/08 09:04:57;;;;;;;12.35;11.30;;;;;;;;;;4876362;29;20332;-70
2022/04/08 09:07:24;;;;;;;12.88;11.88;;;;;;;;;;4922390;29;20430;-70
2022/04/08 09:09:52;;;;;;;12.40;11.50;;;;;;;;;;4950780;28;20035;-71
2022/04/08 09:12:18;;;;;;;12.95;12.10;;;;;;;;;;4957919;28;20133;-70
2022/04/08 09:14:48;;;;;;;12.40;11.50;;;;;;;;;;4933786;28;20161;-70
2022/04/08 09:17:16;;;;;;;13.05;12.15;;;;;;;;;;4950809;28;20462;-71
2022/04/08 09:19:45;;;;;;;13.02;12.20;;;;;;;;;;4951430;28;20046;-70
2022/04/08 09:22:11;;;;;;;13.45;12.43;;;;;;;;;;4950884;29;20043;-70
2022/04/08 09:24:36;;;;;;;13.50;12.52;;;;;;;;;;4949386;28;20053;-71
2022/04/08 09:27:02;;;;;;;13.05;12.15;;;;;;;;;;4961019;28;20436;-71
2022/04/08 09:29:28;;;;;;;12.40;11.60;;;;;;;;;;4933036;29;20490;-71
2022/04/08 09:31:57;;;;;;;12.98;12.15;;;;;;;;;;4934247;28;20042;-71
2022/04/08 09:34:23;;;;;;;12.65;11.85;;;;;;;;;;4949145;28;20098;-72
2022/04/08 09:36:49;;;;;;;13.00;12.00;;;;;;;;;;4936323;29;20039;-72
2022/04/08 09:39:14;;;;;;;12.02;11.23;;;;;;;;;;4944206;29;20557;-71
2022/04/08 09:41:42;;;;;;;12.73;11.55;;;;;;;;;;4952698;28;20479;-71
2022/04/08 09:44:09;;;;;;;12.85;12.00;;;;;;;;;;4948999;28;20035;-71
2022/04/08 09:46:36;;;;;;;12.95;11.85;;;;;;;;;;4949625;28;20054;-71
2022/04/08 09:49:04;;;;;;;12.52;11.70;;;;;;;;;;4947482;29;20138;-71
2022/04/08 09:51:39;;;;;;;12.27;11.40;;;;;;;;;;4954175;28;20533;-71
2022/04/08 09:54:14;;;;;;;12.70;11.90;;;;;;;;;;4929280;29;20126;-71
2022/04/08 09:56:43;;;;;;;12.70;11.80;;;;;;;;;;4950325;29;20272;-71
2022/04/08 09:59:20;;;;;;;12.63;11.68;;;;;;;;;;4947423;28;20578;-71
2022/04/08 10:01:47;;;;;;;13.07;12.07;;;;;;;;;;4946037;28;20403;-71
2022/04/08 10:04:13;;;;;;;13.68;12.65;;;;;;;;;;4946618;28;20032;-71
2022/04/08 10:06:41;;;;;;;13.30;12.30;;;;;;;;;;4951770;28;20035;-70
2022/04/08 10:09:10;;;;;;;14.10;12.77;;;;;;;;;;4949079;29;20027;-71
2022/04/08 10:11:58;;;;;;;14.40;13.20;;;;;;;;;;4943354;28;20468;-70
2022/04/08 10:14:46;;;;;;;12.98;11.73;;;;;;;;;;4956383;28;20043;-70
2022/04/08 10:17:12;;;;;;;12.68;11.77;;;;;;;;;;4944184;28;20035;-70
2022/04/08 10:19:38;;;;;;;13.15;12.18;;;;;;;;;;4950136;28;20042;-70
2022/04/08 10:22:16;;;;;;;13.02;12.13;;;;;;;;;;4952261;28;20054;-70
2022/04/08 10:24:53;;;;;;;13.50;12.50;;;;;;;;;;4935408;29;20043;-70
2022/04/08 10:27:34;;;;;;;13.40;12.35;;;;;;;;;;4946112;29;20126;-70
2022/04/08 10:30:00;;;;;;;13.70;12.13;;;;;;;;;;4925201;29;20043;-70
2022/04/08 10:32:38;;;;;;;12.82;11.70;;;;;;;;;;4928165;28;20138;-71
2022/04/08 10:35:19;;;;;;;13.02;12.10;;;;;;;;;;4948010;28;20039;-71
2022/04/08 10:37:59;;;;;;;12.57;11.63;;;;;;;;;;4944847;28;20058;-70
2022/04/08 10:40:29;;;;;;;12.57;11.77;;;;;;;;;;4947985;28;20110;-70
2022/04/08 10:43:01;;;;;;;13.60;12.20;;;;;;;;;;4951311;28;20039;-70
2022/04/08 10:45:27;;;;;;;12.18;11.38;;;;;;;;;;4940848;28;20083;-70
2022/04/08 10:47:53;;;;;;;12.38;11.60;;;;;;;;;;4952545;29;20035;-70
2022/04/08 10:50:25;;;;;;;12.93;11.90;;;;;;;;;;4953027;28;20050;-70
2022/04/08 10:53:18;;;;;;;12.45;11.55;;;;;;;;;;4933787;29;20042;-71
2022/04/08 10:55:53;;;;;;;12.88;11.70;;;;;;;;;;4958729;28;20210;-70
2022/04/08 10:58:33;;;;;;;12.65;11.77;;;;;;;;;;4952952;28;20039;-71
2022/04/08 11:00:59;;;;;;;12.35;11.40;;;;;;;;;;4950596;29;20036;-71
2022/04/08 11:03:28;;;;;;;12.05;11.30;;;;;;;;;;4953797;28;20053;-70
2022/04/08 11:05:54;;;;;;;13.07;12.15;;;;;;;;;;4954392;28;20442;-70
2022/04/08 11:08:25;;;;;;;12.48;11.57;;;;;;;;;;4952910;28;20042;-71
2022/04/08 11:11:00;;;;;;;12.25;11.55;;;;;;;;;;4948537;28;20607;-71
2022/04/08 11:13:26;;;;;;;12.68;11.77;;;;;;;;;;4954206;28;20159;-70
2022/04/08 11:15:52;;;;;;;13.00;12.00;;;;;;;;;;4949509;28;20098;-70
2022/04/08 11:18:18;;;;;;;13.05;12.20;;;;;;;;;;4949578;28;20043;-70
2022/04/08 11:20:50;;;;;;;12.18;11.35;;;;;;;;;;4955306;28;20034;-70
2022/04/08 11:23:32;;;;;;;13.43;12.32;;;;;;;;;;4949456;29;20051;-69
2022/04/08 11:25:58;;;;;;;12.52;11.73;;;;;;;;;;4934787;29;20499;-70
2022/04/08 11:28:24;;;;;;;13.43;12.35;;;;;;;;;;4952486;28;20434;-70
2022/04/08 11:30:58;;;;;;;12.52;11.63;;;;;;;;;;4958973;28;20027;-70
2022/04/08 11:33:25;;;;;;;13.25;12.25;;;;;;;;;;4951014;28;20031;-70
2022/04/08 11:35:58;;;;;;;12.48;11.75;;;;;;;;;;4950546;28;20034;-70
2022/04/08 11:38:27;;;;;;;13.13;12.20;;;;;;;;;;4936025;28;20038;-70
2022/04/08 11:40:53;;;;;;;21.43;18.73;;;;;;;;;;4956489;28;20037;-69
2022/04/08 11:43:19;;;;;;;13.40;12.30;;;;;;;;;;4932143;29;20036;-70
2022/04/08 11:45:47;;;;;;;13.02;12.13;;;;;;;;;;4938634;28;20039;-70
2022/04/08 11:48:15;;;;;;;13.15;12.32;;;;;;;;;;4947078;28;20050;-70
2022/04/08 11:50:42;;;;;;;12.38;11.48;;;;;;;;;;4913015;29;20507;-69
2022/04/08 11:53:21;;;;;;;12.88;12.07;;;;;;;;;;4937485;28;20296;-69
2022/04/08 11:56:04;;;;;;;12.80;11.98;;;;;;;;;;4952244;28;20042;-70
2022/04/08 11:58:29;;;;;;;12.50;11.80;;;;;;;;;;4932460;29;20051;-69
2022/04/08 12:00:59;;;;;;;12.70;11.80;;;;;;;;;;4948320;29;20047;-69
2022/04/08 12:03:29;;;;;;;;;;;;;;;;;;4946546;28;20498;-69
2022/04/08 12:05:55;;;;;;;13.77;12.60;;;;;;;;;;4950202;28;19922;-69
2022/04/08 12:08:21;;;;;;;13.48;12.65;;;;;;;;;;4949215;29;20046;-69
2022/04/08 12:10:52;;;;;;;13.18;12.25;;;;;;;;;;4948465;29;20178;-71
2022/04/08 12:13:27;;;;;;;13.82;12.73;;;;;;;;;;4949681;28;20031;-71
2022/04/08 12:15:58;;;;;;;13.57;12.45;;;;;;;;;;4946956;28;20393;-71
2022/04/08 12:18:28;;;;;;;12.88;12.02;;;;;;;;;;4948543;29;20098;-69
2022/04/08 12:20:57;;;;;;;13.43;12.40;;;;;;;;;;4949460;29;20043;-70
2022/04/08 12:23:24;;;;;;;13.85;12.45;;;;;;;;;;4951432;28;20501;-71
2022/04/08 12:26:05;;;;;;;13.02;11.98;;;;;;;;;;4948491;28;20051;-71
2022/04/08 12:28:32;;;;;;;12.93;11.93;;;;;;;;;;4943366;29;20047;-71
2022/04/08 12:31:10;;;;;;;13.00;12.18;;;;;;;;;;4949138;28;20035;-70
2022/04/08 12:33:36;;;;;;;13.15;12.20;;;;;;;;;;4947717;28;20415;-71
2022/04/08 12:36:02;;;;;;;13.45;12.30;;;;;;;;;;4947744;29;20035;-71
2022/04/08 12:38:29;;;;;;;12.55;11.70;;;;;;;;;;4948306;28;20050;-70
2022/04/08 12:40:54;;;;;;;14.00;12.95;;;;;;;;;;4955215;28;20553;-70
2022/04/08 12:43:20;;;;;;;13.55;12.45;;;;;;;;;;4949105;28;20047;-70
2022/04/08 12:45:46;;;;;;;13.52;12.43;;;;;;;;;;4949412;28;20034;-70
2022/04/08 12:48:11;;;;;;;13.55;12.57;;;;;;;;;;4948680;28;20098;-70
2022/04/08 12:50:37;;;;;;;13.40;12.07;;;;;;;;;;4953258;28;20536;-69
2022/04/08 12:53:03;;;;;;;12.77;11.90;;;;;;;;;;4948555;29;20031;-69
2022/04/08 12:55:28;;;;;;;13.48;12.50;;;;;;;;;;4946915;28;20046;-70
2022/04/08 12:57:55;;;;;;;13.73;12.68;;;;;;;;;;4953485;28;20070;-69
2022/04/08 13:00:23;;;;;;;13.80;12.60;;;;;;;;;;4949310;28;20038;-70
2022/04/08 13:02:48;;;;;;;13.57;12.68;;;;;;;;;;4943274;28;20425;-69
2022/04/08 13:05:14;;;;;;;11.95;11.20;;;;;;;;;;4947578;28;20458;-69
2022/04/08 13:07:40;;;;;;;13.07;12.18;;;;;;;;;;4948233;28;20043;-69
2022/04/08 13:10:07;;;;;;;12.82;12.02;;;;;;;;;;4930889;29;21324;-70
2022/04/08 13:12:35;;;;;;;12.70;11.90;;;;;;;;;;4948157;28;20159;-70
2022/04/08 13:15:10;;;;;;;12.75;11.98;;;;;;;;;;4948948;28;20035;-70
2022/04/08 13:17:38;;;;;;;13.25;12.40;;;;;;;;;;4947698;29;20075;-70
2022/04/08 13:20:06;;;;;;;12.98;12.15;;;;;;;;;;4947913;29;20593;-70
2022/04/08 13:22:32;;;;;;;12.87;12.17;;;;;;;;;;4950183;28;20482;-70
2022/04/08 13:24:58;;;;;;;13.07;12.20;;;;;;;;;;4947729;28;20043;-70
2022/04/08 13:27:23;;;;;;;13.30;12.10;;;;;;;;;;4947179;28;20221;-70
2022/04/08 13:29:50;;;;;;;12.93;12.10;;;;;;;;;;4947624;29;20047;-70
2022/04/08 13:32:17;;;;;;;13.68;12.60;;;;;;;;;;4947312;28;20039;-70
2022/04/08 13:34:43;;;;;;;14.00;12.90;;;;;;;;;;4949573;28;20038;-70
2022/04/08 13:37:10;;;;;;;18.52;13.15;;;;;;;;;;4953646;28;20047;-70
2022/04/08 13:39:36;;;;;;;13.55;12.50;;;;;;;;;;4947084;29;20031;-70
2022/04/08 13:42:03;;;;;;;14.65;13.52;;;;;;;;;;4948283;28;20035;-70
2022/04/08 13:44:30;;;;;;;41.00;31.67;;;;;;;;;;4949118;28;20053;-70
2022/04/08 13:46:57;;;;;;;13.80;12.90;;;;;;;;;;4929603;29;20406;-70
2022/04/08 13:49:22;;;;;;;15.07;13.80;;;;;;;;;;4946936;28;20053;-69
2022/04/08 13:51:48;;;;;;;15.10;14.00;;;;;;;;;;4931889;28;20538;-70
2022/04/08 13:54:14;;;;;;;15.68;14.48;;;;;;;;;;4952548;28;20525;-70
2022/04/08 13:56:40;;;;;;;18.10;16.50;;;;;;;;;;4947774;28;20046;-69
2022/04/08 13:59:05;;;;;;;14.10;13.20;;;;;;;;;;4947344;29;20649;-69
2022/04/08 14:01:32;;;;;;;14.50;13.40;;;;;;;;;;4944774;28;20110;-69
2022/04/08 14:03:59;;;;;;;16.35;15.25;;;;;;;;;;4928902;29;20499;-69
2022/04/08 14:06:25;;;;;;;15.07;13.98;;;;;;;;;;4947694;28;20035;-69
2022/04/08 14:08:52;;;;;;;14.68;13.57;;;;;;;;;;4945860;28;20042;-68
2022/04/08 14:11:18;;;;;;;14.93;13.85;;;;;;;;;;4954458;28;20043;-69
2022/04/08 14:13:43;;;;;;;15.57;14.48;;;;;;;;;;4946489;29;20057;-69
2022/04/08 14:16:09;;;;;;;15.40;14.48;;;;;;;;;;4944647;28;20130;-70
2022/04/08 14:18:35;;;;;;;14.65;13.65;;;;;;;;;;4936203;29;20078;-71
2022/04/08 14:21:02;;;;;;;15.02;14.00;;;;;;;;;;4945955;29;20410;-71
2022/04/08 14:23:28;;;;;;;16.60;15.10;;;;;;;;;;4930095;29;20493;-71
2022/04/08 14:25:55;;;;;;;14.55;13.50;;;;;;;;;;4934046;28;20105;-70
2022/04/08 14:28:24;;;;;;;14.68;13.65;;;;;;;;;;4933817;29;20058;-71
2022/04/08 14:30:51;;;;;;;14.02;13.07;;;;;;;;;;4945304;28;20206;-72
2022/04/08 14:33:17;;;;;;;13.77;12.68;;;;;;;;;;4936043;28;20467;-71
2022/04/08 14:35:43;;;;;;;14.30;13.30;;;;;;;;;;4947418;28;20423;-72
2022/04/08 14:38:09;;;;;;;15.35;14.18;;;;;;;;;;4925985;29;20099;-72
2022/04/08 14:40:34;;;;;;;14.13;13.20;;;;;;;;;;4942352;28;20516;-72
2022/04/08 14:43:01;;;;;;;14.55;13.55;;;;;;;;;;4933845;29;20040;-71
2022/04/08 14:45:27;;;;;;;14.27;13.27;;;;;;;;;;4949315;29;20039;-71
2022/04/08 14:47:53;;;;;;;16.23;14.93;;;;;;;;;;4919351;28;20399;-71
2022/04/08 14:50:19;;;;;;;16.90;15.40;;;;;;;;;;4938914;29;20055;-71
2022/04/08 14:52:44;;;;;;;15.20;14.20;;;;;;;;;;4947636;29;20039;-71
2022/04/08 14:55:10;;;;;;;16.48;15.00;;;;;;;;;;4947333;29;20483;-71
2022/04/08 14:57:36;;;;;;;15.70;14.40;;;;;;;;;;4947532;28;20042;-71
2022/04/08 15:00:06;;;;;;;15.23;14.02;;;;;;;;;;4948924;23;20091;-68
2022/04/08 15:02:32;;;;;;;17.15;15.75;;;;;;;;;;4899002;28;20063;-68
2022/04/08 15:04:57;;;;;;;14.65;13.48;;;;;;;;;;4906397;28;20139;-68